WMT4902 EPKK-LIPZ
Flight info
| Callsign | WMT4902 |
|---|---|
| Flight time | N/A |
| Altitude | 34000 |
| Route | BABKO DCT VADEX DCT KOPAT DCT MAREG DCT NIGSI DCT RADLY DCT ROSKA M859 TULIK DCT BASOG |
| Aircraft | A21N/M-SDE1E2E3FGIJ1J4RWXY/LB1 |
Departure
| Time | 2026-04-30 09:34 |
|---|---|
| Airport | Kraków John Paul II International Airport (EPKK) |
Arrival
| Time | N/A |
|---|---|
| Airport | Venice Marco Polo Airport (LIPZ) |
| Time | Latitude | Longitude | Altitude | Speed | Heading |
|---|---|---|---|---|---|
| 2026-04-30 09:21 | 50.07357 | 19.80346 | 798 ft | 0 kts | 168° |
| 2026-04-30 09:27 | 50.07358 | 19.80345 | 798 ft | 1 kts | 169° |
| 2026-04-30 09:27 | 50.07372 | 19.80341 | 799 ft | 2 kts | 168° |
| 2026-04-30 09:27 | 50.07387 | 19.80336 | 799 ft | 2 kts | 168° |
| 2026-04-30 09:28 | 50.07401 | 19.80332 | 799 ft | 2 kts | 168° |
| 2026-04-30 09:28 | 50.07411 | 19.80329 | 798 ft | 2 kts | 168° |
| 2026-04-30 09:28 | 50.07425 | 19.80318 | 799 ft | 2 kts | 135° |
| 2026-04-30 09:28 | 50.07433 | 19.80299 | 799 ft | 2 kts | 110° |
| 2026-04-30 09:29 | 50.07436 | 19.80277 | 799 ft | 1 kts | 85° |
| 2026-04-30 09:29 | 50.07435 | 19.80266 | 798 ft | 1 kts | 75° |
| 2026-04-30 09:29 | 50.07434 | 19.80261 | 798 ft | 0 kts | 78° |
| 2026-04-30 09:31 | 50.07435 | 19.80270 | 798 ft | 2 kts | 78° |
| 2026-04-30 09:31 | 50.07443 | 19.80326 | 798 ft | 8 kts | 78° |
| 2026-04-30 09:31 | 50.07484 | 19.80416 | 798 ft | 12 kts | 20° |
| 2026-04-30 09:31 | 50.07579 | 19.80414 | 798 ft | 14 kts | 355° |
| 2026-04-30 09:32 | 50.07686 | 19.80389 | 798 ft | 16 kts | 348° |
| 2026-04-30 09:32 | 50.07797 | 19.80349 | 798 ft | 15 kts | 349° |
| 2026-04-30 09:32 | 50.07840 | 19.80336 | 798 ft | 4 kts | 349° |
| 2026-04-30 09:32 | 50.07844 | 19.80334 | 798 ft | 1 kts | 349° |
| 2026-04-30 09:33 | 50.07848 | 19.80333 | 798 ft | 0 kts | 349° |
| 2026-04-30 09:33 | 50.07905 | 19.80316 | 798 ft | 14 kts | 349° |
| 2026-04-30 09:33 | 50.08005 | 19.80252 | 798 ft | 15 kts | 302° |
| 2026-04-30 09:33 | 50.07991 | 19.80084 | 798 ft | 18 kts | 248° |
| 2026-04-30 09:34 | 50.07937 | 19.79660 | 798 ft | 73 kts | 260° |
| 2026-04-30 09:34 | 50.07777 | 19.78536 | 799 ft | 138 kts | 258° |
| 2026-04-30 09:34 | 50.07544 | 19.76819 | 982 ft | 173 kts | 259° |
| 2026-04-30 09:34 | 50.07304 | 19.74997 | 1641 ft | 175 kts | 259° |
| 2026-04-30 09:35 | 50.07059 | 19.73184 | 2416 ft | 174 kts | 260° |
| 2026-04-30 09:35 | 50.06800 | 19.71334 | 2953 ft | 182 kts | 261° |
| 2026-04-30 09:35 | 50.06519 | 19.69316 | 3313 ft | 198 kts | 261° |
| 2026-04-30 09:35 | 50.06195 | 19.67144 | 3634 ft | 219 kts | 253° |
| 2026-04-30 09:36 | 50.05279 | 19.65154 | 3996 ft | 241 kts | 215° |
| 2026-04-30 09:36 | 50.03664 | 19.64371 | 4464 ft | 254 kts | 177° |
| 2026-04-30 09:36 | 50.01882 | 19.64890 | 4955 ft | 266 kts | 165° |
| 2026-04-30 09:36 | 50.00067 | 19.65611 | 5542 ft | 276 kts | 165° |
| 2026-04-30 09:37 | 49.98205 | 19.66321 | 6304 ft | 279 kts | 165° |
| 2026-04-30 09:37 | 49.96321 | 19.66996 | 7085 ft | 282 kts | 166° |
| 2026-04-30 09:37 | 49.94411 | 19.67654 | 7827 ft | 285 kts | 165° |
| 2026-04-30 09:37 | 49.92449 | 19.68318 | 8559 ft | 290 kts | 165° |
| 2026-04-30 09:38 | 49.90474 | 19.68984 | 9275 ft | 294 kts | 165° |
| 2026-04-30 09:38 | 49.88471 | 19.69456 | 9950 ft | 302 kts | 178° |
| 2026-04-30 09:38 | 49.86387 | 19.68790 | 10641 ft | 309 kts | 203° |
| 2026-04-30 09:38 | 49.84467 | 19.67258 | 11147 ft | 320 kts | 210° |
| 2026-04-30 09:39 | 49.82509 | 19.65497 | 11626 ft | 331 kts | 211° |
| 2026-04-30 09:39 | 49.80497 | 19.63676 | 12217 ft | 338 kts | 210° |
| 2026-04-30 09:39 | 49.78447 | 19.61852 | 12885 ft | 342 kts | 210° |
| 2026-04-30 09:39 | 49.76375 | 19.60039 | 13521 ft | 346 kts | 210° |
| 2026-04-30 09:40 | 49.74276 | 19.58221 | 14124 ft | 350 kts | 209° |
| 2026-04-30 09:40 | 49.72150 | 19.56391 | 14733 ft | 354 kts | 209° |
| 2026-04-30 09:40 | 49.69980 | 19.54528 | 15323 ft | 358 kts | 209° |
| 2026-04-30 09:40 | 49.67799 | 19.52659 | 15893 ft | 362 kts | 209° |
| 2026-04-30 09:41 | 49.65612 | 19.50787 | 16445 ft | 367 kts | 209° |
| 2026-04-30 09:41 | 49.63381 | 19.48879 | 16989 ft | 370 kts | 210° |
| 2026-04-30 09:41 | 49.61203 | 19.46668 | 17532 ft | 374 kts | 219° |
| 2026-04-30 09:41 | 49.59277 | 19.44049 | 18079 ft | 376 kts | 227° |
| 2026-04-30 09:42 | 49.57456 | 19.41126 | 18598 ft | 379 kts | 229° |
| 2026-04-30 09:42 | 49.55652 | 19.38122 | 19112 ft | 383 kts | 230° |
| 2026-04-30 09:42 | 49.53836 | 19.35096 | 19628 ft | 386 kts | 229° |
| 2026-04-30 09:42 | 49.52006 | 19.32060 | 20129 ft | 389 kts | 229° |
| 2026-04-30 09:43 | 49.50155 | 19.29009 | 20609 ft | 393 kts | 228° |
| 2026-04-30 09:43 | 49.48295 | 19.25962 | 21091 ft | 396 kts | 228° |
| 2026-04-30 09:43 | 49.46411 | 19.22890 | 21563 ft | 399 kts | 228° |
| 2026-04-30 09:43 | 49.44508 | 19.19798 | 22028 ft | 402 kts | 228° |
| 2026-04-30 09:44 | 49.42583 | 19.16675 | 22463 ft | 405 kts | 228° |
| 2026-04-30 09:44 | 49.40635 | 19.13519 | 22903 ft | 408 kts | 228° |
| 2026-04-30 09:44 | 49.38689 | 19.10374 | 23337 ft | 411 kts | 228° |
| 2026-04-30 09:44 | 49.36704 | 19.07170 | 23782 ft | 413 kts | 228° |
| 2026-04-30 09:45 | 49.34741 | 19.04004 | 24196 ft | 416 kts | 228° |
| 2026-04-30 09:45 | 49.32729 | 19.00763 | 24596 ft | 419 kts | 228° |
| 2026-04-30 09:45 | 49.30704 | 18.97506 | 24986 ft | 422 kts | 228° |
| 2026-04-30 09:45 | 49.28693 | 18.94277 | 25389 ft | 424 kts | 228° |
| 2026-04-30 09:46 | 49.26661 | 18.91015 | 25799 ft | 426 kts | 228° |
| 2026-04-30 09:46 | 49.24611 | 18.87729 | 26204 ft | 428 kts | 228° |
| 2026-04-30 09:46 | 49.22537 | 18.84412 | 26574 ft | 431 kts | 228° |